sensor_id;sensor_type;location;lat;lon;timestamp;temperature;humidity
13211;DHT22;6670;51.53087800;7.23266500;2022-09-23T00:00:40;13.10;99.90
13211;DHT22;6670;51.53087800;7.23266500;2022-09-23T00:03:10;13.10;99.90
13211;DHT22;6670;51.53087800;7.23266500;2022-09-23T00:05:37;13.20;99.90
13211;DHT22;6670;51.53087800;7.23266500;2022-09-23T00:08:08;13.20;99.90
13211;DHT22;6670;51.53087800;7.23266500;2022-09-23T00:10:38;13.10;99.90
13211;DHT22;6670;51.53087800;7.23266500;2022-09-23T00:13:06;13.10;99.90
13211;DHT22;6670;51.53087800;7.23266500;2022-09-23T00:15:37;13.10;99.90
13211;DHT22;6670;51.53087800;7.23266500;2022-09-23T00:18:05;13.10;99.90
13211;DHT22;6670;51.53087800;7.23266500;2022-09-23T00:20:35;13.20;99.90
13211;DHT22;6670;51.53087800;7.23266500;2022-09-23T00:23:02;13.20;99.90
13211;DHT22;6670;51.53087800;7.23266500;2022-09-23T00:25:30;13.20;99.90
13211;DHT22;6670;51.53087800;7.23266500;2022-09-23T00:27:57;13.20;99.90
13211;DHT22;6670;51.53087800;7.23266500;2022-09-23T00:30:25;13.20;99.90
13211;DHT22;6670;51.53087800;7.23266500;2022-09-23T00:32:52;13.20;99.90
13211;DHT22;6670;51.53087800;7.23266500;2022-09-23T00:35:21;13.20;99.90
13211;DHT22;6670;51.53087800;7.23266500;2022-09-23T00:37:51;13.20;99.90
13211;DHT22;6670;51.53087800;7.23266500;2022-09-23T00:40:18;13.20;99.90
13211;DHT22;6670;51.53087800;7.23266500;2022-09-23T00:42:46;13.20;99.90
13211;DHT22;6670;51.53087800;7.23266500;2022-09-23T00:45:14;13.30;99.90
13211;DHT22;6670;51.53087800;7.23266500;2022-09-23T00:47:44;13.30;99.90
13211;DHT22;6670;51.53087800;7.23266500;2022-09-23T00:50:20;13.40;99.90
13211;DHT22;6670;51.53087800;7.23266500;2022-09-23T00:52:54;13.40;99.90
13211;DHT22;6670;51.53087800;7.23266500;2022-09-23T00:55:25;13.30;99.90
13211;DHT22;6670;51.53087800;7.23266500;2022-09-23T00:57:56;13.20;99.90
13211;DHT22;6670;51.53087800;7.23266500;2022-09-23T01:00:25;13.10;99.90
13211;DHT22;6670;51.53087800;7.23266500;2022-09-23T01:02:52;13.20;99.90
13211;DHT22;6670;51.53087800;7.23266500;2022-09-23T01:05:20;13.20;99.90
13211;DHT22;6670;51.53087800;7.23266500;2022-09-23T01:07:48;13.20;99.90
13211;DHT22;6670;51.53087800;7.23266500;2022-09-23T01:10:19;13.10;99.90
13211;DHT22;6670;51.53087800;7.23266500;2022-09-23T01:13:00;13.20;99.90
13211;DHT22;6670;51.53087800;7.23266500;2022-09-23T01:15:37;13.20;99.90
13211;DHT22;6670;51.53087800;7.23266500;2022-09-23T01:18:12;13.30;99.90
13211;DHT22;6670;51.53087800;7.23266500;2022-09-23T01:21:08;13.30;99.90
13211;DHT22;6670;51.53087800;7.23266500;2022-09-23T01:24:16;13.20;99.90
13211;DHT22;6670;51.53087800;7.23266500;2022-09-23T01:27:08;13.30;99.90
13211;DHT22;6670;51.53087800;7.23266500;2022-09-23T01:30:08;13.40;99.90
13211;DHT22;6670;51.53087800;7.23266500;2022-09-23T01:32:54;13.40;99.90
13211;DHT22;6670;51.53087800;7.23266500;2022-09-23T01:35:26;13.40;99.90
13211;DHT22;6670;51.53087800;7.23266500;2022-09-23T01:38:02;13.40;99.90
13211;DHT22;6670;51.53087800;7.23266500;2022-09-23T01:40:43;13.30;99.90
13211;DHT22;6670;51.53087800;7.23266500;2022-09-23T01:43:17;13.30;99.90
13211;DHT22;6670;51.53087800;7.23266500;2022-09-23T01:45:47;13.30;99.90
13211;DHT22;6670;51.53087800;7.23266500;2022-09-23T01:48:21;13.30;99.90
13211;DHT22;6670;51.53087800;7.23266500;2022-09-23T01:50:54;13.30;99.90
13211;DHT22;6670;51.53087800;7.23266500;2022-09-23T01:53:28;13.30;99.90
13211;DHT22;6670;51.53087800;7.23266500;2022-09-23T01:56:02;13.20;99.90
13211;DHT22;6670;51.53087800;7.23266500;2022-09-23T01:58:37;13.20;99.90
13211;DHT22;6670;51.53087800;7.23266500;2022-09-23T02:01:07;13.20;99.90
13211;DHT22;6670;51.53087800;7.23266500;2022-09-23T02:03:43;13.20;99.90
13211;DHT22;6670;51.53087800;7.23266500;2022-09-23T02:06:15;13.20;99.90
13211;DHT22;6670;51.53087800;7.23266500;2022-09-23T02:08:49;13.20;99.90
13211;DHT22;6670;51.53087800;7.23266500;2022-09-23T02:11:18;13.20;99.90
13211;DHT22;6670;51.53087800;7.23266500;2022-09-23T02:13:51;13.20;99.90
13211;DHT22;6670;51.53087800;7.23266500;2022-09-23T02:16:24;13.20;99.90
13211;DHT22;6670;51.53087800;7.23266500;2022-09-23T02:18:57;13.20;99.90
13211;DHT22;6670;51.53087800;7.23266500;2022-09-23T02:21:31;13.20;99.90
13211;DHT22;6670;51.53087800;7.23266500;2022-09-23T02:24:06;13.20;99.90
13211;DHT22;6670;51.53087800;7.23266500;2022-09-23T02:26:38;13.20;99.90
13211;DHT22;6670;51.53087800;7.23266500;2022-09-23T02:29:18;13.20;99.90
13211;DHT22;6670;51.53087800;7.23266500;2022-09-23T02:31:55;13.10;99.90
13211;DHT22;6670;51.53087800;7.23266500;2022-09-23T02:34:35;13.20;99.90
13211;DHT22;6670;51.53087800;7.23266500;2022-09-23T02:37:09;13.10;99.90
13211;DHT22;6670;51.53087800;7.23266500;2022-09-23T02:39:48;13.20;99.90
13211;DHT22;6670;51.53087800;7.23266500;2022-09-23T02:42:20;13.10;99.90
13211;DHT22;6670;51.53087800;7.23266500;2022-09-23T02:44:50;13.10;99.90
13211;DHT22;6670;51.53087800;7.23266500;2022-09-23T02:47:19;13.20;99.90
13211;DHT22;6670;51.53087800;7.23266500;2022-09-23T02:49:51;13.10;99.90
13211;DHT22;6670;51.53087800;7.23266500;2022-09-23T02:52:21;13.20;99.90
13211;DHT22;6670;51.53087800;7.23266500;2022-09-23T02:54:50;13.20;99.90
13211;DHT22;6670;51.53087800;7.23266500;2022-09-23T02:57:18;13.10;99.90
13211;DHT22;6670;51.53087800;7.23266500;2022-09-23T02:59:46;13.10;99.90
13211;DHT22;6670;51.53087800;7.23266500;2022-09-23T03:05:21;13.10;99.90
13211;DHT22;6670;51.53087800;7.23266500;2022-09-23T03:08:04;13.10;99.90
13211;DHT22;6670;51.53087800;7.23266500;2022-09-23T03:10:41;13.10;99.90
13211;DHT22;6670;51.53087800;7.23266500;2022-09-23T03:13:16;13.10;99.90
13211;DHT22;6670;51.53087800;7.23266500;2022-09-23T03:15:51;13.10;99.90
13211;DHT22;6670;51.53087800;7.23266500;2022-09-23T03:18:26;13.10;99.90
13211;DHT22;6670;51.53087800;7.23266500;2022-09-23T03:21:05;13.10;99.90
13211;DHT22;6670;51.53087800;7.23266500;2022-09-23T03:23:35;13.10;99.90
13211;DHT22;6670;51.53087800;7.23266500;2022-09-23T03:26:07;13.10;99.90
13211;DHT22;6670;51.53087800;7.23266500;2022-09-23T03:28:37;13.10;99.90
13211;DHT22;6670;51.53087800;7.23266500;2022-09-23T03:31:09;13.20;99.90
13211;DHT22;6670;51.53087800;7.23266500;2022-09-23T03:33:40;13.20;99.90
13211;DHT22;6670;51.53087800;7.23266500;2022-09-23T03:36:10;13.10;99.90
13211;DHT22;6670;51.53087800;7.23266500;2022-09-23T03:39:00;13.20;99.90
13211;DHT22;6670;51.53087800;7.23266500;2022-09-23T03:41:31;13.10;99.90
13211;DHT22;6670;51.53087800;7.23266500;2022-09-23T03:44:01;13.20;99.90
13211;DHT22;6670;51.53087800;7.23266500;2022-09-23T03:46:34;13.10;99.90
13211;DHT22;6670;51.53087800;7.23266500;2022-09-23T03:49:08;13.00;99.90
13211;DHT22;6670;51.53087800;7.23266500;2022-09-23T03:51:38;13.00;99.90
13211;DHT22;6670;51.53087800;7.23266500;2022-09-23T03:54:06;13.00;99.90
13211;DHT22;6670;51.53087800;7.23266500;2022-09-23T03:56:33;13.10;99.90
13211;DHT22;6670;51.53087800;7.23266500;2022-09-23T03:59:01;13.00;99.90
13211;DHT22;6670;51.53087800;7.23266500;2022-09-23T04:01:28;13.00;99.90
13211;DHT22;6670;51.53087800;7.23266500;2022-09-23T04:03:56;13.00;99.90
13211;DHT22;6670;51.53087800;7.23266500;2022-09-23T04:06:23;13.00;99.90
13211;DHT22;6670;51.53087800;7.23266500;2022-09-23T04:08:52;12.90;99.90
13211;DHT22;6670;51.53087800;7.23266500;2022-09-23T04:11:19;12.90;99.90
13211;DHT22;6670;51.53087800;7.23266500;2022-09-23T04:13:47;13.00;99.90
13211;DHT22;6670;51.53087800;7.23266500;2022-09-23T04:16:14;13.00;99.90
13211;DHT22;6670;51.53087800;7.23266500;2022-09-23T04:18:42;12.90;99.90
13211;DHT22;6670;51.53087800;7.23266500;2022-09-23T04:21:09;12.90;99.90
13211;DHT22;6670;51.53087800;7.23266500;2022-09-23T04:23:37;12.90;99.90
13211;DHT22;6670;51.53087800;7.23266500;2022-09-23T04:26:06;12.90;99.90
13211;DHT22;6670;51.53087800;7.23266500;2022-09-23T04:28:33;12.90;99.90
13211;DHT22;6670;51.53087800;7.23266500;2022-09-23T04:31:03;12.80;99.90
13211;DHT22;6670;51.53087800;7.23266500;2022-09-23T04:33:31;12.80;99.90
13211;DHT22;6670;51.53087800;7.23266500;2022-09-23T04:35:59;12.80;99.90
13211;DHT22;6670;51.53087800;7.23266500;2022-09-23T04:38:27;12.80;99.90
13211;DHT22;6670;51.53087800;7.23266500;2022-09-23T04:40:54;12.80;99.90
13211;DHT22;6670;51.53087800;7.23266500;2022-09-23T04:43:25;12.90;99.90
13211;DHT22;6670;51.53087800;7.23266500;2022-09-23T04:45:57;12.80;99.90
13211;DHT22;6670;51.53087800;7.23266500;2022-09-23T04:48:25;12.80;99.90
13211;DHT22;6670;51.53087800;7.23266500;2022-09-23T04:50:53;12.80;99.90
13211;DHT22;6670;51.53087800;7.23266500;2022-09-23T04:53:20;12.80;99.90
13211;DHT22;6670;51.53087800;7.23266500;2022-09-23T04:55:48;12.80;99.90
13211;DHT22;6670;51.53087800;7.23266500;2022-09-23T04:58:16;12.80;99.90
13211;DHT22;6670;51.53087800;7.23266500;2022-09-23T05:00:45;12.80;99.90
13211;DHT22;6670;51.53087800;7.23266500;2022-09-23T05:03:13;12.80;99.90
13211;DHT22;6670;51.53087800;7.23266500;2022-09-23T05:05:41;12.70;99.90
13211;DHT22;6670;51.53087800;7.23266500;2022-09-23T05:08:08;12.70;99.90
13211;DHT22;6670;51.53087800;7.23266500;2022-09-23T05:10:36;12.70;99.90
13211;DHT22;6670;51.53087800;7.23266500;2022-09-23T05:13:33;12.80;99.90
13211;DHT22;6670;51.53087800;7.23266500;2022-09-23T05:16:04;12.80;99.90
13211;DHT22;6670;51.53087800;7.23266500;2022-09-23T05:18:34;12.80;99.90
13211;DHT22;6670;51.53087800;7.23266500;2022-09-23T05:21:02;12.80;99.90
13211;DHT22;6670;51.53087800;7.23266500;2022-09-23T05:23:32;12.80;99.90
13211;DHT22;6670;51.53087800;7.23266500;2022-09-23T05:26:02;12.80;99.90
13211;DHT22;6670;51.53087800;7.23266500;2022-09-23T05:28:31;12.70;99.90
13211;DHT22;6670;51.53087800;7.23266500;2022-09-23T05:31:05;12.70;99.90
13211;DHT22;6670;51.53087800;7.23266500;2022-09-23T05:33:33;12.80;99.90
13211;DHT22;6670;51.53087800;7.23266500;2022-09-23T05:36:03;12.70;99.90
13211;DHT22;6670;51.53087800;7.23266500;2022-09-23T05:38:31;12.70;99.90
13211;DHT22;6670;51.53087800;7.23266500;2022-09-23T05:41:02;12.70;99.90
13211;DHT22;6670;51.53087800;7.23266500;2022-09-23T05:43:30;12.80;99.90
13211;DHT22;6670;51.53087800;7.23266500;2022-09-23T05:46:07;12.80;99.90
13211;DHT22;6670;51.53087800;7.23266500;2022-09-23T05:48:43;12.70;99.90
13211;DHT22;6670;51.53087800;7.23266500;2022-09-23T05:51:14;12.70;99.90
13211;DHT22;6670;51.53087800;7.23266500;2022-09-23T05:53:42;12.80;99.90
13211;DHT22;6670;51.53087800;7.23266500;2022-09-23T05:56:10;12.80;99.90
13211;DHT22;6670;51.53087800;7.23266500;2022-09-23T05:58:38;12.70;99.90
13211;DHT22;6670;51.53087800;7.23266500;2022-09-23T06:01:10;12.60;99.90
13211;DHT22;6670;51.53087800;7.23266500;2022-09-23T06:03:38;12.80;99.90
13211;DHT22;6670;51.53087800;7.23266500;2022-09-23T06:06:06;12.90;99.90
13211;DHT22;6670;51.53087800;7.23266500;2022-09-23T06:08:44;12.80;99.90
13211;DHT22;6670;51.53087800;7.23266500;2022-09-23T06:11:12;12.90;99.90
13211;DHT22;6670;51.53087800;7.23266500;2022-09-23T06:13:40;12.90;99.90
13211;DHT22;6670;51.53087800;7.23266500;2022-09-23T06:16:10;13.10;99.90
13211;DHT22;6670;51.53087800;7.23266500;2022-09-23T06:18:40;13.00;99.90
13211;DHT22;6670;51.53087800;7.23266500;2022-09-23T06:21:11;13.00;99.90
13211;DHT22;6670;51.53087800;7.23266500;2022-09-23T06:23:38;13.00;99.90
13211;DHT22;6670;51.53087800;7.23266500;2022-09-23T06:26:07;13.00;99.90
13211;DHT22;6670;51.53087800;7.23266500;2022-09-23T06:28:40;13.00;99.90
13211;DHT22;6670;51.53087800;7.23266500;2022-09-23T06:31:11;13.10;99.90
13211;DHT22;6670;51.53087800;7.23266500;2022-09-23T06:33:41;13.20;99.90
13211;DHT22;6670;51.53087800;7.23266500;2022-09-23T06:36:09;13.20;99.90
13211;DHT22;6670;51.53087800;7.23266500;2022-09-23T06:38:38;13.30;99.90
13211;DHT22;6670;51.53087800;7.23266500;2022-09-23T06:41:06;13.30;99.90
13211;DHT22;6670;51.53087800;7.23266500;2022-09-23T06:43:34;13.30;99.90
13211;DHT22;6670;51.53087800;7.23266500;2022-09-23T06:46:03;13.40;99.90
13211;DHT22;6670;51.53087800;7.23266500;2022-09-23T06:48:33;13.30;99.90
13211;DHT22;6670;51.53087800;7.23266500;2022-09-23T06:51:03;13.40;99.90
13211;DHT22;6670;51.53087800;7.23266500;2022-09-23T06:53:32;13.50;99.90
13211;DHT22;6670;51.53087800;7.23266500;2022-09-23T06:56:01;13.50;99.90
13211;DHT22;6670;51.53087800;7.23266500;2022-09-23T06:58:30;13.60;99.90
13211;DHT22;6670;51.53087800;7.23266500;2022-09-23T07:01:00;13.70;99.90
13211;DHT22;6670;51.53087800;7.23266500;2022-09-23T07:03:27;13.80;99.90
13211;DHT22;6670;51.53087800;7.23266500;2022-09-23T07:05:59;13.90;99.90
13211;DHT22;6670;51.53087800;7.23266500;2022-09-23T07:08:28;13.90;99.90
13211;DHT22;6670;51.53087800;7.23266500;2022-09-23T07:10:57;14.10;99.90
13211;DHT22;6670;51.53087800;7.23266500;2022-09-23T07:13:25;14.40;99.90
13211;DHT22;6670;51.53087800;7.23266500;2022-09-23T07:15:54;15.00;99.90
13211;DHT22;6670;51.53087800;7.23266500;2022-09-23T07:18:24;15.20;99.20
13211;DHT22;6670;51.53087800;7.23266500;2022-09-23T07:20:52;15.00;99.20
13211;DHT22;6670;51.53087800;7.23266500;2022-09-23T07:23:25;15.10;98.30
13211;DHT22;6670;51.53087800;7.23266500;2022-09-23T07:25:52;15.20;97.90
13211;DHT22;6670;51.53087800;7.23266500;2022-09-23T07:28:24;15.20;97.50
13211;DHT22;6670;51.53087800;7.23266500;2022-09-23T07:30:53;15.30;98.70
13211;DHT22;6670;51.53087800;7.23266500;2022-09-23T07:33:20;15.30;98.10
13211;DHT22;6670;51.53087800;7.23266500;2022-09-23T07:35:48;15.20;97.30
13211;DHT22;6670;51.53087800;7.23266500;2022-09-23T07:38:15;15.20;98.10
13211;DHT22;6670;51.53087800;7.23266500;2022-09-23T07:40:44;15.10;97.50
13211;DHT22;6670;51.53087800;7.23266500;2022-09-23T07:43:11;15.20;97.40
13211;DHT22;6670;51.53087800;7.23266500;2022-09-23T07:45:39;15.20;99.10
13211;DHT22;6670;51.53087800;7.23266500;2022-09-23T07:48:09;15.20;99.00
13211;DHT22;6670;51.53087800;7.23266500;2022-09-23T07:50:38;15.20;96.80
13211;DHT22;6670;51.53087800;7.23266500;2022-09-23T07:53:06;15.20;97.20
13211;DHT22;6670;51.53087800;7.23266500;2022-09-23T07:55:34;15.30;97.90
13211;DHT22;6670;51.53087800;7.23266500;2022-09-23T07:58:03;15.30;98.10
13211;DHT22;6670;51.53087800;7.23266500;2022-09-23T08:00:30;15.20;97.50
13211;DHT22;6670;51.53087800;7.23266500;2022-09-23T08:02:58;15.30;97.30
13211;DHT22;6670;51.53087800;7.23266500;2022-09-23T08:05:25;15.40;95.90
13211;DHT22;6670;51.53087800;7.23266500;2022-09-23T08:07:53;15.40;95.60
13211;DHT22;6670;51.53087800;7.23266500;2022-09-23T08:10:20;15.40;96.60
13211;DHT22;6670;51.53087800;7.23266500;2022-09-23T08:12:48;15.40;96.10
13211;DHT22;6670;51.53087800;7.23266500;2022-09-23T08:15:17;15.40;95.30
13211;DHT22;6670;51.53087800;7.23266500;2022-09-23T08:17:44;15.40;95.30
13211;DHT22;6670;51.53087800;7.23266500;2022-09-23T08:20:11;15.40;95.30
13211;DHT22;6670;51.53087800;7.23266500;2022-09-23T08:22:59;15.40;95.70
13211;DHT22;6670;51.53087800;7.23266500;2022-09-23T08:25:28;15.50;94.90
13211;DHT22;6670;51.53087800;7.23266500;2022-09-23T08:27:56;15.60;94.70
13211;DHT22;6670;51.53087800;7.23266500;2022-09-23T08:30:26;15.60;95.00
13211;DHT22;6670;51.53087800;7.23266500;2022-09-23T08:32:53;15.60;95.40
13211;DHT22;6670;51.53087800;7.23266500;2022-09-23T08:35:22;15.70;95.30
13211;DHT22;6670;51.53087800;7.23266500;2022-09-23T08:37:50;15.70;94.70
13211;DHT22;6670;51.53087800;7.23266500;2022-09-23T08:40:18;15.60;94.70
13211;DHT22;6670;51.53087800;7.23266500;2022-09-23T08:42:45;15.70;95.40
13211;DHT22;6670;51.53087800;7.23266500;2022-09-23T08:45:17;15.70;94.60
13211;DHT22;6670;51.53087800;7.23266500;2022-09-23T08:47:52;15.70;94.70
13211;DHT22;6670;51.53087800;7.23266500;2022-09-23T08:50:22;15.70;95.80
13211;DHT22;6670;51.53087800;7.23266500;2022-09-23T08:52:53;15.80;94.10
13211;DHT22;6670;51.53087800;7.23266500;2022-09-23T08:55:28;15.80;94.20
13211;DHT22;6670;51.53087800;7.23266500;2022-09-23T08:58:07;15.90;94.40
13211;DHT22;6670;51.53087800;7.23266500;2022-09-23T09:00:52;15.80;94.80
13211;DHT22;6670;51.53087800;7.23266500;2022-09-23T09:03:28;15.90;94.30
13211;DHT22;6670;51.53087800;7.23266500;2022-09-23T09:05:57;16.00;94.90
13211;DHT22;6670;51.53087800;7.23266500;2022-09-23T09:08:27;16.00;95.00
13211;DHT22;6670;51.53087800;7.23266500;2022-09-23T09:10:57;16.00;94.50
13211;DHT22;6670;51.53087800;7.23266500;2022-09-23T09:13:29;16.00;93.60
13211;DHT22;6670;51.53087800;7.23266500;2022-09-23T09:16:24;16.00;93.70
13211;DHT22;6670;51.53087800;7.23266500;2022-09-23T09:18:55;16.10;94.20
13211;DHT22;6670;51.53087800;7.23266500;2022-09-23T09:21:30;16.10;94.20
13211;DHT22;6670;51.53087800;7.23266500;2022-09-23T09:24:06;16.10;93.40
13211;DHT22;6670;51.53087800;7.23266500;2022-09-23T09:26:39;16.20;93.70
13211;DHT22;6670;51.53087800;7.23266500;2022-09-23T09:29:09;16.20;93.00
13211;DHT22;6670;51.53087800;7.23266500;2022-09-23T09:31:40;16.10;92.80
13211;DHT22;6670;51.53087800;7.23266500;2022-09-23T09:34:18;16.10;92.60
13211;DHT22;6670;51.53087800;7.23266500;2022-09-23T09:36:56;16.20;92.40
13211;DHT22;6670;51.53087800;7.23266500;2022-09-23T09:39:26;16.20;93.10
13211;DHT22;6670;51.53087800;7.23266500;2022-09-23T09:41:54;16.20;92.60
13211;DHT22;6670;51.53087800;7.23266500;2022-09-23T09:44:29;16.20;92.90
13211;DHT22;6670;51.53087800;7.23266500;2022-09-23T09:47:13;16.30;93.30
13211;DHT22;6670;51.53087800;7.23266500;2022-09-23T09:49:47;16.30;93.10
13211;DHT22;6670;51.53087800;7.23266500;2022-09-23T09:52:21;16.40;92.20
13211;DHT22;6670;51.53087800;7.23266500;2022-09-23T09:54:50;16.40;93.20
13211;DHT22;6670;51.53087800;7.23266500;2022-09-23T09:57:30;16.50;92.50
13211;DHT22;6670;51.53087800;7.23266500;2022-09-23T10:03:02;16.60;91.40
13211;DHT22;6670;51.53087800;7.23266500;2022-09-23T10:05:33;16.70;91.30
13211;DHT22;6670;51.53087800;7.23266500;2022-09-23T10:08:21;16.70;91.60
13211;DHT22;6670;51.53087800;7.23266500;2022-09-23T10:10:53;16.60;91.80
13211;DHT22;6670;51.53087800;7.23266500;2022-09-23T10:13:26;16.70;92.30
13211;DHT22;6670;51.53087800;7.23266500;2022-09-23T10:15:56;16.90;91.90
13211;DHT22;6670;51.53087800;7.23266500;2022-09-23T10:18:28;16.90;92.60
13211;DHT22;6670;51.53087800;7.23266500;2022-09-23T10:21:06;16.90;91.90
13211;DHT22;6670;51.53087800;7.23266500;2022-09-23T10:23:38;16.80;91.20
13211;DHT22;6670;51.53087800;7.23266500;2022-09-23T10:26:07;16.80;91.30
13211;DHT22;6670;51.53087800;7.23266500;2022-09-23T10:28:49;16.80;92.40
13211;DHT22;6670;51.53087800;7.23266500;2022-09-23T10:31:22;16.80;91.40
13211;DHT22;6670;51.53087800;7.23266500;2022-09-23T10:33:52;16.90;91.30
13211;DHT22;6670;51.53087800;7.23266500;2022-09-23T10:36:24;17.00;90.80
13211;DHT22;6670;51.53087800;7.23266500;2022-09-23T10:38:55;17.10;90.40
13211;DHT22;6670;51.53087800;7.23266500;2022-09-23T10:41:52;17.10;90.20
13211;DHT22;6670;51.53087800;7.23266500;2022-09-23T10:44:57;17.10;90.10
13211;DHT22;6670;51.53087800;7.23266500;2022-09-23T10:47:52;17.30;90.50
13211;DHT22;6670;51.53087800;7.23266500;2022-09-23T10:50:36;17.50;90.60
13211;DHT22;6670;51.53087800;7.23266500;2022-09-23T10:53:14;17.60;91.00
13211;DHT22;6670;51.53087800;7.23266500;2022-09-23T10:55:58;17.40;90.80
13211;DHT22;6670;51.53087800;7.23266500;2022-09-23T10:58:47;17.60;91.80
13211;DHT22;6670;51.53087800;7.23266500;2022-09-23T11:01:27;17.60;90.30
13211;DHT22;6670;51.53087800;7.23266500;2022-09-23T11:04:21;17.60;89.60
13211;DHT22;6670;51.53087800;7.23266500;2022-09-23T11:07:16;17.60;88.10
13211;DHT22;6670;51.53087800;7.23266500;2022-09-23T11:10:08;17.70;88.90
13211;DHT22;6670;51.53087800;7.23266500;2022-09-23T11:12:48;17.70;90.00
13211;DHT22;6670;51.53087800;7.23266500;2022-09-23T11:15:28;17.60;89.50
13211;DHT22;6670;51.53087800;7.23266500;2022-09-23T11:20:56;17.50;86.70
13211;DHT22;6670;51.53087800;7.23266500;2022-09-23T11:23:47;17.80;89.40
13211;DHT22;6670;51.53087800;7.23266500;2022-09-23T11:26:30;17.80;88.30
13211;DHT22;6670;51.53087800;7.23266500;2022-09-23T11:29:25;17.60;87.00
13211;DHT22;6670;51.53087800;7.23266500;2022-09-23T11:32:06;17.70;88.40
13211;DHT22;6670;51.53087800;7.23266500;2022-09-23T11:34:47;17.80;87.60
13211;DHT22;6670;51.53087800;7.23266500;2022-09-23T11:37:20;18.00;88.30
13211;DHT22;6670;51.53087800;7.23266500;2022-09-23T11:39:54;18.10;84.90
13211;DHT22;6670;51.53087800;7.23266500;2022-09-23T11:42:28;18.30;84.90
13211;DHT22;6670;51.53087800;7.23266500;2022-09-23T11:44:58;18.30;84.00
13211;DHT22;6670;51.53087800;7.23266500;2022-09-23T11:47:30;18.50;84.70
13211;DHT22;6670;51.53087800;7.23266500;2022-09-23T11:50:03;18.70;83.50
13211;DHT22;6670;51.53087800;7.23266500;2022-09-23T11:52:39;18.80;81.00
13211;DHT22;6670;51.53087800;7.23266500;2022-09-23T11:55:16;19.20;80.40
13211;DHT22;6670;51.53087800;7.23266500;2022-09-23T11:57:50;19.20;78.90
13211;DHT22;6670;51.53087800;7.23266500;2022-09-23T12:00:21;19.20;78.20
13211;DHT22;6670;51.53087800;7.23266500;2022-09-23T12:03:03;19.20;77.20
13211;DHT22;6670;51.53087800;7.23266500;2022-09-23T12:05:35;19.50;78.70
13211;DHT22;6670;51.53087800;7.23266500;2022-09-23T12:08:09;19.90;77.30
13211;DHT22;6670;51.53087800;7.23266500;2022-09-23T12:10:44;20.00;73.80
13211;DHT22;6670;51.53087800;7.23266500;2022-09-23T12:13:20;19.60;72.10
13211;DHT22;6670;51.53087800;7.23266500;2022-09-23T12:16:02;19.40;68.40
13211;DHT22;6670;51.53087800;7.23266500;2022-09-23T12:18:42;19.30;67.50
13211;DHT22;6670;51.53087800;7.23266500;2022-09-23T12:57:57;19.30;69.40
13211;DHT22;6670;51.53087800;7.23266500;2022-09-23T13:00:26;19.10;66.40
13211;DHT22;6670;51.53087800;7.23266500;2022-09-23T13:02:58;19.10;65.40
13211;DHT22;6670;51.53087800;7.23266500;2022-09-23T13:05:46;19.00;65.80
13211;DHT22;6670;51.53087800;7.23266500;2022-09-23T13:08:35;19.10;67.60
13211;DHT22;6670;51.53087800;7.23266500;2022-09-23T13:11:05;19.00;65.60
13211;DHT22;6670;51.53087800;7.23266500;2022-09-23T13:13:38;18.80;67.70
13211;DHT22;6670;51.53087800;7.23266500;2022-09-23T13:16:11;18.70;68.30
13211;DHT22;6670;51.53087800;7.23266500;2022-09-23T13:18:58;18.70;69.50
13211;DHT22;6670;51.53087800;7.23266500;2022-09-23T13:21:58;18.70;69.70
13211;DHT22;6670;51.53087800;7.23266500;2022-09-23T13:24:41;18.60;70.40
13211;DHT22;6670;51.53087800;7.23266500;2022-09-23T13:27:21;18.60;68.90
13211;DHT22;6670;51.53087800;7.23266500;2022-09-23T13:29:57;18.60;68.90
13211;DHT22;6670;51.53087800;7.23266500;2022-09-23T13:32:29;18.60;69.20
13211;DHT22;6670;51.53087800;7.23266500;2022-09-23T13:35:02;18.60;69.40
13211;DHT22;6670;51.53087800;7.23266500;2022-09-23T13:37:42;18.40;68.30
13211;DHT22;6670;51.53087800;7.23266500;2022-09-23T13:40:20;18.30;69.00
13211;DHT22;6670;51.53087800;7.23266500;2022-09-23T13:42:58;18.30;69.80
13211;DHT22;6670;51.53087800;7.23266500;2022-09-23T13:45:36;18.30;69.70
13211;DHT22;6670;51.53087800;7.23266500;2022-09-23T13:48:18;18.30;71.00
13211;DHT22;6670;51.53087800;7.23266500;2022-09-23T13:50:49;18.30;71.50
13211;DHT22;6670;51.53087800;7.23266500;2022-09-23T13:53:22;18.30;71.10
13211;DHT22;6670;51.53087800;7.23266500;2022-09-23T13:56:02;18.30;71.50
13211;DHT22;6670;51.53087800;7.23266500;2022-09-23T13:58:31;18.30;72.70
13211;DHT22;6670;51.53087800;7.23266500;2022-09-23T14:01:01;18.40;74.60
13211;DHT22;6670;51.53087800;7.23266500;2022-09-23T14:03:30;18.40;75.10
13211;DHT22;6670;51.53087800;7.23266500;2022-09-23T14:06:02;18.40;75.90
13211;DHT22;6670;51.53087800;7.23266500;2022-09-23T14:08:31;18.40;77.20
13211;DHT22;6670;51.53087800;7.23266500;2022-09-23T14:10:59;18.40;77.00
13211;DHT22;6670;51.53087800;7.23266500;2022-09-23T14:13:28;18.40;76.60
13211;DHT22;6670;51.53087800;7.23266500;2022-09-23T14:15:58;18.30;78.20
13211;DHT22;6670;51.53087800;7.23266500;2022-09-23T14:18:34;18.30;78.70
13211;DHT22;6670;51.53087800;7.23266500;2022-09-23T14:21:03;18.20;78.90
13211;DHT22;6670;51.53087800;7.23266500;2022-09-23T14:23:33;18.20;79.10
13211;DHT22;6670;51.53087800;7.23266500;2022-09-23T14:26:04;18.20;80.30
13211;DHT22;6670;51.53087800;7.23266500;2022-09-23T14:28:32;18.20;80.00
13211;DHT22;6670;51.53087800;7.23266500;2022-09-23T14:31:01;18.20;80.40
13211;DHT22;6670;51.53087800;7.23266500;2022-09-23T14:33:38;18.20;80.10
13211;DHT22;6670;51.53087800;7.23266500;2022-09-23T14:36:08;18.20;79.30
13211;DHT22;6670;51.53087800;7.23266500;2022-09-23T14:39:07;18.10;79.30
13211;DHT22;6670;51.53087800;7.23266500;2022-09-23T14:41:42;18.10;80.50
13211;DHT22;6670;51.53087800;7.23266500;2022-09-23T14:44:18;18.00;79.90
13211;DHT22;6670;51.53087800;7.23266500;2022-09-23T14:46:55;18.00;80.10
13211;DHT22;6670;51.53087800;7.23266500;2022-09-23T14:49:25;18.00;81.00
13211;DHT22;6670;51.53087800;7.23266500;2022-09-23T14:51:54;18.10;82.70